Time;durP1;ratioP1;P1;durP2;ratioP2;P2;SDS_P1;SDS_P2;PMS_P1;PMS_P2;Temp;Humidity;BMP_temperature;BMP_pressure;BME280_temperature;BME280_humidity;BME280_pressure;Samples;Min_cycle;Max_cycle;Signal;HPM_P1;HPM_P2
2022/01/28 00:01:02;;;;;;;14.03;9.07;;;4.60;99.90;;;;;;5096640;28;20465;-83
2022/01/28 00:03:31;;;;;;;11.53;8.93;;;4.60;99.90;;;;;;5101839;28;20463;-82
2022/01/28 00:05:58;;;;;;;10.70;9.60;;;4.50;99.90;;;;;;5110524;28;20467;-82
2022/01/28 00:08:25;;;;;;;10.80;9.70;;;4.60;99.90;;;;;;5122415;28;20442;-84
2022/01/28 00:10:52;;;;;;;13.60;8.20;;;4.70;99.90;;;;;;5113372;28;20447;-83
2022/01/28 00:13:22;;;;;;;12.73;9.33;;;4.70;99.90;;;;;;5125498;28;20476;-84
2022/01/28 00:16:20;;;;;;;11.60;8.53;;;4.70;99.90;;;;;;5103585;28;20561;-84
2022/01/28 00:38:05;;;;;;;10.13;7.97;;;4.90;99.90;;;;;;5113335;28;20438;-85
2022/01/28 00:40:33;;;;;;;8.17;7.07;;;5.00;99.90;;;;;;5108240;28;20510;-84
2022/01/28 00:43:01;;;;;;;10.13;8.57;;;5.00;99.90;;;;;;5099852;28;20470;-85
2022/01/28 00:45:28;;;;;;;9.20;7.93;;;4.90;99.90;;;;;;5098621;28;20447;-85
2022/01/28 00:47:55;;;;;;;10.50;8.03;;;5.00;99.90;;;;;;5116838;28;20445;-85
2022/01/28 00:50:24;;;;;;;8.63;7.70;;;5.00;99.90;;;;;;5100882;28;20446;-84
2022/01/28 00:52:51;;;;;;;10.83;7.77;;;5.00;99.90;;;;;;5108188;28;20906;-84
2022/01/28 00:55:18;;;;;;;8.80;7.10;;;5.00;99.90;;;;;;5098735;28;20482;-84
2022/01/28 00:57:44;;;;;;;8.13;6.77;;;5.00;99.90;;;;;;5104753;28;20438;-84
2022/01/28 01:00:13;;;;;;;10.40;7.77;;;5.00;99.90;;;;;;5130273;28;20520;-85
2022/01/28 01:02:40;;;;;;;7.40;6.00;;;5.00;99.90;;;;;;5108355;28;20480;-86
2022/01/28 01:05:07;;;;;;;8.50;7.60;;;5.00;99.90;;;;;;5116049;28;20457;-84
2022/01/28 01:07:35;;;;;;;9.20;7.80;;;5.00;99.90;;;;;;5106289;28;20443;-83
2022/01/28 01:10:04;;;;;;;8.20;6.60;;;5.00;99.90;;;;;;5119432;28;20446;-84
2022/01/28 01:12:33;;;;;;;7.37;6.47;;;4.90;99.90;;;;;;5109598;28;20470;-84
2022/01/28 01:15:00;;;;;;;7.97;6.30;;;5.00;99.90;;;;;;5113056;28;20448;-85
2022/01/28 01:17:32;;;;;;;8.23;7.53;;;4.90;99.90;;;;;;5106656;28;20451;-83
2022/01/28 01:20:15;;;;;;;9.17;7.93;;;5.00;99.90;;;;;;5117172;28;20446;-82
2022/01/28 01:22:51;;;;;;;7.60;6.80;;;4.90;99.90;;;;;;5117971;28;20450;-82
2022/01/28 01:25:25;;;;;;;11.60;7.83;;;4.80;99.90;;;;;;5124734;28;20453;-84
2022/01/28 01:27:54;;;;;;;8.67;7.27;;;4.80;99.90;;;;;;5108605;28;20441;-84
2022/01/28 01:30:21;;;;;;;9.60;7.80;;;4.80;99.90;;;;;;5103770;28;20450;-85
2022/01/28 01:32:48;;;;;;;8.63;6.70;;;4.70;99.90;;;;;;5115100;28;20515;-85
2022/01/28 01:35:15;;;;;;;9.60;6.77;;;4.70;99.90;;;;;;5122171;28;20478;-84
2022/01/28 01:37:43;;;;;;;11.37;7.70;;;4.70;99.90;;;;;;5104436;28;20446;-84
2022/01/28 01:40:11;;;;;;;11.80;7.87;;;4.70;99.90;;;;;;5099736;28;20451;-84
2022/01/28 01:42:46;;;;;;;11.10;7.73;;;4.60;99.90;;;;;;5108622;28;20498;-85
2022/01/28 01:53:33;;;;;;;12.27;7.20;;;4.50;99.90;;;;;;5113349;28;20429;-85
2022/01/28 01:56:00;;;;;;;8.50;7.60;;;4.40;99.90;;;;;;5105576;28;20478;-84
2022/01/28 01:58:31;;;;;;;9.33;7.67;;;4.40;99.90;;;;;;5102839;28;20499;-84
2022/01/28 02:00:58;;;;;;;8.87;7.33;;;4.40;99.90;;;;;;5117047;28;20475;-84
2022/01/28 02:03:25;;;;;;;10.43;7.77;;;4.30;99.90;;;;;;5106362;28;20439;-85
2022/01/28 02:05:52;;;;;;;8.77;7.27;;;4.30;99.90;;;;;;5107360;28;20441;-84
2022/01/28 02:08:18;;;;;;;10.30;7.93;;;4.30;99.90;;;;;;5108202;28;20443;-86
2022/01/28 02:10:46;;;;;;;11.10;7.93;;;4.40;99.90;;;;;;5100204;28;21133;-84
2022/01/28 02:13:13;;;;;;;12.37;8.73;;;4.40;99.90;;;;;;5105191;28;20458;-85
2022/01/28 02:15:40;;;;;;;13.33;8.87;;;4.40;99.90;;;;;;5104731;28;20531;-85
2022/01/28 02:18:07;;;;;;;9.40;8.40;;;4.30;99.90;;;;;;5109808;28;20458;-85
2022/01/28 02:20:35;;;;;;;10.50;8.60;;;4.40;99.90;;;;;;5112862;28;20446;-86
2022/01/28 02:23:03;;;;;;;11.77;8.63;;;4.30;99.90;;;;;;5116983;28;20475;-85
2022/01/28 02:25:33;;;;;;;10.50;7.67;;;4.40;99.90;;;;;;5123239;28;20436;-85
2022/01/28 02:28:02;;;;;;;11.13;8.40;;;4.20;99.90;;;;;;5126071;28;20429;-85
2022/01/28 02:30:29;;;;;;;11.20;8.67;;;4.20;99.90;;;;;;5117238;28;20482;-84
2022/01/28 02:33:02;;;;;;;11.70;8.97;;;4.20;99.90;;;;;;5115527;28;20496;-84
2022/01/28 02:35:28;;;;;;;10.00;7.80;;;4.10;99.90;;;;;;5122410;28;20523;-85
2022/01/28 02:37:57;;;;;;;9.53;8.03;;;4.00;99.90;;;;;;5120305;28;20423;-84
2022/01/28 02:40:24;;;;;;;9.13;7.80;;;3.90;99.90;;;;;;5119503;28;20448;-84
2022/01/28 02:42:57;;;;;;;12.07;7.43;;;4.00;99.90;;;;;;5125331;28;20496;-84
2022/01/28 02:45:28;;;;;;;10.53;8.50;;;3.90;99.90;;;;;;5126612;28;20452;-85
2022/01/28 02:48:00;;;;;;;10.03;7.20;;;3.80;99.90;;;;;;5104936;28;20452;-84
2022/01/28 02:50:29;;;;;;;12.47;7.57;;;3.80;99.90;;;;;;5105958;28;20480;-85
2022/01/28 02:53:06;;;;;;;8.30;7.13;;;3.80;99.90;;;;;;5123595;28;20553;-84
2022/01/28 02:55:38;;;;;;;11.90;8.90;;;3.80;99.90;;;;;;5100003;28;20506;-84
2022/01/28 02:58:18;;;;;;;9.40;8.20;;;3.70;99.90;;;;;;5088964;28;20453;-85
2022/01/28 03:00:46;;;;;;;9.40;7.50;;;3.70;99.90;;;;;;5115441;28;20452;-84
2022/01/28 03:03:13;;;;;;;8.20;6.93;;;3.70;99.90;;;;;;5113570;28;20544;-84
2022/01/28 03:05:40;;;;;;;7.80;6.47;;;3.70;99.90;;;;;;5100873;28;20791;-83
2022/01/28 03:08:08;;;;;;;9.73;8.00;;;3.90;99.90;;;;;;5118440;28;20459;-85
2022/01/28 03:10:59;;;;;;;9.53;7.77;;;3.90;99.90;;;;;;5130713;28;20429;-84
2022/01/28 03:13:34;;;;;;;8.97;7.63;;;4.00;99.90;;;;;;5093425;28;20442;-85
2022/01/28 03:16:10;;;;;;;8.00;7.20;;;4.10;99.90;;;;;;5114950;28;20500;-85
2022/01/28 03:18:52;;;;;;;10.40;7.43;;;4.20;99.90;;;;;;5110363;28;20482;-81
2022/01/28 03:21:24;;;;;;;8.73;7.77;;;4.20;99.90;;;;;;5135689;27;20457;-82
2022/01/28 03:23:53;;;;;;;11.00;7.03;;;4.30;99.90;;;;;;5135856;27;20473;-84
2022/01/28 03:26:20;;;;;;;8.37;7.53;;;4.30;99.90;;;;;;5124084;27;20418;-84
2022/01/28 03:28:47;;;;;;;10.30;7.50;;;4.20;99.90;;;;;;5135286;27;20468;-85
2022/01/28 03:31:14;;;;;;;8.90;6.90;;;4.20;99.90;;;;;;5097392;28;20446;-85
2022/01/28 03:33:40;;;;;;;11.80;8.50;;;4.10;99.90;;;;;;5132476;27;20457;-83
2022/01/28 03:36:09;;;;;;;10.90;6.97;;;4.10;99.90;;;;;;5119762;28;20484;-84
2022/01/28 03:38:37;;;;;;;8.80;7.60;;;4.10;99.90;;;;;;5128025;28;20456;-84
2022/01/28 03:41:06;;;;;;;11.00;7.70;;;4.10;99.90;;;;;;5121908;28;20444;-84
2022/01/28 03:43:32;;;;;;;9.93;7.17;;;4.20;99.90;;;;;;5115232;28;20424;-85
2022/01/28 03:45:59;;;;;;;10.43;7.50;;;4.30;99.90;;;;;;5104275;28;20860;-85
2022/01/28 03:48:26;;;;;;;8.87;7.30;;;4.40;99.90;;;;;;5093044;28;20457;-84
2022/01/28 03:50:52;;;;;;;9.77;7.60;;;4.50;99.90;;;;;;5105484;28;20865;-85
2022/01/28 03:53:19;;;;;;;7.63;6.90;;;4.60;99.90;;;;;;5102023;28;20462;-85
2022/01/28 03:55:46;;;;;;;8.93;7.30;;;4.60;99.90;;;;;;5108962;28;20451;-85
2022/01/28 03:58:15;;;;;;;11.60;7.30;;;4.60;99.90;;;;;;5104955;28;20525;-85
2022/01/28 04:00:41;;;;;;;8.70;7.00;;;4.70;99.90;;;;;;5125565;28;20495;-85
2022/01/28 04:03:12;;;;;;;9.97;7.33;;;4.70;99.90;;;;;;5101801;28;20574;-84
2022/01/28 04:11:28;;;;;;;8.70;6.10;;;4.80;99.90;;;;;;5101175;28;20425;-88
2022/01/28 04:13:58;;;;;;;8.90;7.30;;;4.80;99.90;;;;;;5100387;28;20456;-88
2022/01/28 04:17:19;;;;;;;8.73;7.23;;;4.90;99.90;;;;;;5103604;28;20481;-89
2022/01/28 04:19:20;;;;;;;6.80;5.90;;;4.90;99.90;;;;;;5074381;28;20756;-88
2022/01/28 04:21:47;;;;;;;8.80;7.50;;;4.90;99.90;;;;;;5072319;28;20441;-88
2022/01/28 04:24:14;;;;;;;10.83;7.30;;;4.90;99.90;;;;;;5079379;28;20447;-88
2022/01/28 04:26:41;;;;;;;9.67;8.07;;;4.90;99.90;;;;;;5076726;28;20448;-88
2022/01/28 04:29:11;;;;;;;11.17;8.47;;;4.90;99.90;;;;;;5071332;28;20451;-88
2022/01/28 04:31:42;;;;;;;8.77;7.23;;;4.80;99.90;;;;;;5053720;28;20459;-88
2022/01/28 04:34:08;;;;;;;8.93;7.30;;;4.70;99.90;;;;;;5058738;28;20509;-88
2022/01/28 04:36:40;;;;;;;13.80;7.70;;;4.70;99.90;;;;;;5059548;28;20475;-88
2022/01/28 04:39:14;;;;;;;8.80;7.27;;;4.60;99.90;;;;;;5064114;28;20456;-88
2022/01/28 04:41:52;;;;;;;11.67;8.97;;;4.60;99.90;;;;;;5065761;28;20460;-89
2022/01/28 04:44:27;;;;;;;14.63;8.83;;;4.50;99.90;;;;;;5065206;28;20451;-88
2022/01/28 04:47:00;;;;;;;13.33;8.43;;;4.40;99.90;;;;;;5077432;28;20475;-89
2022/01/28 04:49:38;;;;;;;9.50;7.23;;;4.30;99.90;;;;;;5062550;28;20448;-88
2022/01/28 04:52:33;;;;;;;9.60;8.07;;;4.30;99.90;;;;;;5069377;28;20493;-88
2022/01/28 04:55:08;;;;;;;9.87;7.77;;;4.20;99.90;;;;;;5061075;28;20462;-89
2022/01/28 04:57:47;;;;;;;10.33;7.87;;;4.30;99.90;;;;;;5061229;28;20486;-89
2022/01/28 05:00:23;;;;;;;12.77;9.53;;;4.30;99.90;;;;;;5067084;28;20501;-88
2022/01/28 05:06:00;;;;;;;13.23;8.50;;;4.20;99.90;;;;;;5062430;28;20934;-88
2022/01/28 05:08:47;;;;;;;12.77;8.77;;;4.20;99.90;;;;;;5062700;28;20854;-88
2022/01/28 05:17:21;;;;;;;16.07;8.60;;;4.00;99.90;;;;;;5044402;28;20487;-88
2022/01/28 05:25:44;;;;;;;11.10;8.13;;;4.00;99.90;;;;;;5072842;28;20445;-89
2022/01/28 05:28:16;;;;;;;9.53;6.70;;;4.00;99.90;;;;;;5064881;28;20507;-89
2022/01/28 05:30:43;;;;;;;10.70;8.43;;;4.00;99.90;;;;;;5068439;28;20446;-89
2022/01/28 05:33:11;;;;;;;13.03;8.53;;;4.00;99.90;;;;;;5074426;28;20463;-89
2022/01/28 05:35:38;;;;;;;12.90;8.63;;;3.90;99.90;;;;;;5073844;28;20443;-89
2022/01/28 05:38:04;;;;;;;10.07;8.33;;;4.00;99.90;;;;;;5060244;28;20482;-89
2022/01/28 05:40:31;;;;;;;11.20;8.50;;;3.90;99.90;;;;;;5061105;28;20463;-89
2022/01/28 05:42:58;;;;;;;10.80;8.50;;;3.80;99.90;;;;;;5063930;28;20439;-90
2022/01/28 05:45:25;;;;;;;13.43;9.20;;;3.80;99.90;;;;;;5081998;28;20454;-90
2022/01/28 05:48:17;;;;;;;10.40;7.50;;;3.90;99.90;;;;;;5084590;28;20473;-90
2022/01/28 05:50:45;;;;;;;23.97;16.27;;;3.90;99.90;;;;;;5079016;28;20442;-90
2022/01/28 05:53:11;;;;;;;12.77;9.33;;;3.80;99.90;;;;;;5065610;28;20444;-87
2022/01/28 05:55:38;;;;;;;13.10;9.37;;;3.80;99.90;;;;;;5078429;28;20446;-87
2022/01/28 05:58:05;;;;;;;12.57;9.00;;;3.70;99.90;;;;;;5073907;28;20479;-88
2022/01/28 06:00:32;;;;;;;13.57;10.00;;;3.60;99.90;;;;;;5065770;28;20492;-87
2022/01/28 06:02:59;;;;;;;13.93;9.17;;;3.70;99.90;;;;;;5067828;28;20458;-89
2022/01/28 06:05:29;;;;;;;14.13;9.03;;;3.70;99.90;;;;;;5073734;28;20445;-88
2022/01/28 06:07:58;;;;;;;15.07;8.67;;;3.70;99.90;;;;;;5076205;28;20483;-86
2022/01/28 06:10:25;;;;;;;13.00;9.73;;;3.60;99.90;;;;;;5077373;28;20443;-89
2022/01/28 06:12:52;;;;;;;14.60;8.97;;;3.70;99.90;;;;;;5074489;28;20453;-90
2022/01/28 06:15:19;;;;;;;14.53;9.83;;;3.70;99.90;;;;;;5065858;28;21067;-89
2022/01/28 06:17:46;;;;;;;10.53;8.27;;;3.60;99.90;;;;;;5080489;28;20475;-89
2022/01/28 06:20:16;;;;;;;13.77;8.77;;;3.60;99.90;;;;;;5080496;28;20765;-89
2022/01/28 06:22:44;;;;;;;15.10;9.30;;;3.60;99.90;;;;;;5061513;28;20868;-88
2022/01/28 06:25:14;;;;;;;14.10;9.03;;;3.60;99.90;;;;;;5057765;28;20450;-89
2022/01/28 06:27:41;;;;;;;14.17;9.60;;;3.60;99.90;;;;;;5077886;28;20488;-89
2022/01/28 06:30:10;;;;;;;14.80;9.70;;;3.50;99.90;;;;;;5070271;28;20871;-90
2022/01/28 06:32:37;;;;;;;15.30;10.60;;;3.50;99.90;;;;;;5062441;28;20446;-90
2022/01/28 06:35:07;;;;;;;13.17;9.47;;;3.50;99.90;;;;;;5059777;28;20463;-88
2022/01/28 06:37:35;;;;;;;15.30;9.90;;;3.50;99.90;;;;;;5066848;28;20857;-88
2022/01/28 06:40:02;;;;;;;14.63;9.57;;;3.60;99.90;;;;;;5068777;28;20441;-89
2022/01/28 06:42:34;;;;;;;17.43;12.27;;;3.70;99.90;;;;;;5058886;28;20440;-89
2022/01/28 06:45:01;;;;;;;15.50;10.00;;;3.70;99.90;;;;;;5061304;28;20447;-88
2022/01/28 06:47:27;;;;;;;12.00;8.90;;;3.70;99.90;;;;;;5060896;28;20470;-89
2022/01/28 06:49:54;;;;;;;13.20;9.80;;;3.80;99.90;;;;;;5069552;28;20471;-89
2022/01/28 06:52:21;;;;;;;16.67;11.30;;;3.80;99.90;;;;;;5060068;28;20440;-89
2022/01/28 06:54:48;;;;;;;13.93;10.27;;;3.80;99.90;;;;;;5060994;28;20496;-89
2022/01/28 06:57:15;;;;;;;14.83;10.53;;;3.90;99.90;;;;;;5059434;28;20484;-89
2022/01/28 06:59:44;;;;;;;18.27;9.70;;;3.90;99.90;;;;;;5067426;28;20450;-89
2022/01/28 07:02:10;;;;;;;18.57;9.30;;;3.80;99.90;;;;;;5070278;28;20462;-88
2022/01/28 07:04:37;;;;;;;12.90;8.83;;;3.80;99.90;;;;;;5053319;28;20449;-89
2022/01/28 07:07:05;;;;;;;16.10;9.07;;;3.80;99.90;;;;;;5063619;28;21000;-89
2022/01/28 07:09:33;;;;;;;15.57;11.30;;;3.70;99.90;;;;;;5068140;28;21009;-89
2022/01/28 07:11:59;;;;;;;14.47;11.20;;;3.70;99.90;;;;;;5070084;28;20462;-89
2022/01/28 07:14:26;;;;;;;15.67;10.63;;;3.60;99.90;;;;;;5069835;28;20498;-89
2022/01/28 07:16:54;;;;;;;13.13;9.83;;;3.60;99.90;;;;;;5050619;28;20472;-87
2022/01/28 07:19:21;;;;;;;13.90;9.73;;;3.60;99.90;;;;;;5056209;28;20501;-89
2022/01/28 07:21:48;;;;;;;12.27;10.03;;;3.60;99.90;;;;;;5072869;28;20447;-88
2022/01/28 07:24:14;;;;;;;11.80;9.43;;;3.70;99.90;;;;;;5073044;28;20971;-89
2022/01/28 07:26:41;;;;;;;12.67;9.30;;;3.70;99.90;;;;;;5068934;28;20440;-87
2022/01/28 07:29:09;;;;;;;17.30;10.70;;;3.80;99.90;;;;;;5069630;28;20575;-87
2022/01/28 07:31:38;;;;;;;13.37;9.90;;;3.80;99.90;;;;;;5063361;28;20447;-86
2022/01/28 07:34:06;;;;;;;14.13;8.70;;;3.80;99.90;;;;;;5069988;28;20889;-85
2022/01/28 07:36:33;;;;;;;15.63;8.70;;;3.80;99.90;;;;;;5069326;28;20447;-87
2022/01/28 07:39:00;;;;;;;13.93;9.27;;;3.90;99.90;;;;;;5070965;28;20482;-84
2022/01/28 07:41:27;;;;;;;11.60;7.97;;;3.90;99.90;;;;;;5071815;28;20466;-84
2022/01/28 07:43:54;;;;;;;15.00;8.83;;;4.00;99.90;;;;;;5069004;28;20476;-87
2022/01/28 07:46:21;;;;;;;11.27;8.07;;;4.10;99.90;;;;;;5054870;28;20459;-87
2022/01/28 07:48:47;;;;;;;10.53;7.10;;;4.20;99.90;;;;;;5061015;28;20510;-88
2022/01/28 07:51:15;;;;;;;11.07;7.70;;;4.40;99.90;;;;;;5058444;28;20455;-87
2022/01/28 07:53:42;;;;;;;9.70;7.40;;;4.50;99.90;;;;;;5060161;28;21007;-88
2022/01/28 07:56:11;;;;;;;10.57;6.90;;;4.60;99.90;;;;;;5078860;28;20451;-87
2022/01/28 07:58:38;;;;;;;11.20;7.27;;;4.70;99.90;;;;;;5089463;28;20509;-88
2022/01/28 08:01:06;;;;;;;13.87;8.00;;;4.80;99.90;;;;;;5093398;28;20436;-88
2022/01/28 08:03:33;;;;;;;11.80;8.27;;;4.90;99.90;;;;;;5087924;28;20500;-88
2022/01/28 08:06:00;;;;;;;11.20;7.83;;;5.00;99.90;;;;;;5079684;28;21001;-87
2022/01/28 08:08:30;;;;;;;14.33;8.47;;;5.00;99.90;;;;;;5071116;28;20491;-88
2022/01/28 08:10:57;;;;;;;9.90;7.00;;;5.00;99.90;;;;;;5079283;28;20487;-88
2022/01/28 08:13:23;;;;;;;12.00;7.93;;;5.10;99.90;;;;;;5064117;28;20448;-88
2022/01/28 08:15:50;;;;;;;8.90;7.20;;;5.20;99.90;;;;;;5067032;28;20454;-88
2022/01/28 08:18:17;;;;;;;12.07;8.70;;;5.20;99.90;;;;;;5069140;28;20536;-88
2022/01/28 08:20:46;;;;;;;9.03;6.97;;;5.20;99.90;;;;;;5064024;28;21026;-88
2022/01/28 08:23:14;;;;;;;10.70;7.70;;;5.20;99.90;;;;;;5062673;28;20451;-88
2022/01/28 08:25:42;;;;;;;10.67;7.83;;;5.30;99.90;;;;;;5059333;28;20472;-88
2022/01/28 08:28:09;;;;;;;11.17;7.87;;;5.40;99.90;;;;;;5062264;28;20471;-88
2022/01/28 08:30:38;;;;;;;8.53;7.17;;;5.40;99.90;;;;;;5083113;28;20816;-90
2022/01/28 08:33:05;;;;;;;7.83;6.70;;;5.50;99.90;;;;;;5072574;28;20485;-89
2022/01/28 08:35:37;;;;;;;10.80;6.37;;;5.60;99.90;;;;;;5067594;28;20479;-85
2022/01/28 08:38:12;;;;;;;9.83;6.00;;;5.70;99.90;;;;;;5061389;28;20478;-89
2022/01/28 08:40:40;;;;;;;9.97;5.87;;;5.80;99.90;;;;;;5063446;28;20451;-87
2022/01/28 08:43:08;;;;;;;8.63;5.80;;;5.80;99.90;;;;;;5057943;28;20509;-87
2022/01/28 08:45:35;;;;;;;8.00;5.77;;;5.90;99.90;;;;;;5065709;28;20947;-85
2022/01/28 08:48:01;;;;;;;10.07;6.33;;;6.00;99.90;;;;;;5064491;28;20459;-84
2022/01/28 08:50:28;;;;;;;9.33;5.30;;;6.00;99.90;;;;;;5061745;28;20475;-85
2022/01/28 08:52:55;;;;;;;6.97;5.23;;;6.10;99.90;;;;;;5067824;28;20498;-85
2022/01/28 08:55:22;;;;;;;8.27;5.20;;;6.10;99.90;;;;;;5066233;28;20500;-85
2022/01/28 08:57:48;;;;;;;6.90;4.87;;;6.10;99.90;;;;;;5067786;28;20475;-85
2022/01/28 09:00:18;;;;;;;8.67;5.00;;;6.10;99.90;;;;;;5063515;28;20962;-86
2022/01/28 09:02:45;;;;;;;6.87;5.10;;;6.10;99.90;;;;;;5064957;28;20855;-87
2022/01/28 09:05:12;;;;;;;9.00;5.17;;;6.10;99.90;;;;;;5064045;28;20824;-87
2022/01/28 09:07:39;;;;;;;9.67;5.07;;;6.20;99.90;;;;;;5064155;28;20464;-88
2022/01/28 09:10:11;;;;;;;7.83;5.80;;;6.20;99.90;;;;;;5066596;28;21210;-87
2022/01/28 09:12:46;;;;;;;7.83;4.67;;;6.20;99.90;;;;;;5064800;28;20450;-87
2022/01/28 09:15:14;;;;;;;9.50;5.07;;;6.30;99.90;;;;;;5062612;28;20501;-87
2022/01/28 09:17:42;;;;;;;6.37;4.93;;;6.40;99.90;;;;;;5069199;28;20487;-87
2022/01/28 09:20:09;;;;;;;8.57;5.30;;;6.50;99.90;;;;;;5061566;28;20448;-85
2022/01/28 09:22:36;;;;;;;7.43;5.00;;;6.70;99.90;;;;;;5063316;28;20527;-86
2022/01/28 09:25:04;;;;;;;9.67;6.93;;;6.80;99.90;;;;;;5066266;28;20467;-86
2022/01/28 09:27:30;;;;;;;9.10;5.00;;;6.90;99.90;;;;;;5065651;28;20905;-86
2022/01/28 09:29:57;;;;;;;9.17;6.90;;;7.00;99.90;;;;;;5066557;28;20443;-86
2022/01/28 09:32:24;;;;;;;6.83;4.30;;;7.20;99.90;;;;;;5066510;28;20523;-85
2022/01/28 09:34:52;;;;;;;7.03;5.80;;;7.50;99.90;;;;;;5078279;28;20454;-84
2022/01/28 09:37:19;;;;;;;8.97;5.20;;;7.50;99.90;;;;;;5089153;28;20464;-86
2022/01/28 09:39:46;;;;;;;7.23;5.00;;;7.50;99.90;;;;;;5064208;28;20475;-86
2022/01/28 09:42:15;;;;;;;7.17;5.10;;;7.50;99.90;;;;;;5060358;28;20521;-86
2022/01/28 09:44:43;;;;;;;10.13;5.17;;;7.80;99.90;;;;;;5066174;28;20984;-86
2022/01/28 09:47:11;;;;;;;12.00;5.83;;;8.70;99.90;;;;;;5070739;28;20521;-86
2022/01/28 09:49:39;;;;;;;6.90;4.83;;;9.30;99.90;;;;;;5069255;28;20478;-86
2022/01/28 09:52:09;;;;;;;7.07;4.23;;;9.30;98.90;;;;;;5059222;28;20439;-86
2022/01/28 09:54:37;;;;;;;10.03;4.73;;;9.20;98.50;;;;;;5081253;28;20504;-85
2022/01/28 09:57:06;;;;;;;8.27;3.47;;;9.10;98.10;;;;;;5080912;28;20472;-85
2022/01/28 09:59:34;;;;;;;10.10;4.80;;;9.00;97.50;;;;;;5065510;28;20518;-86
2022/01/28 10:02:00;;;;;;;6.53;5.10;;;9.10;97.60;;;;;;5060981;28;20449;-87
2022/01/28 10:04:27;;;;;;;10.90;3.60;;;9.30;97.10;;;;;;5057912;28;20479;-87
2022/01/28 10:06:55;;;;;;;7.93;3.30;;;9.10;96.30;;;;;;5065722;28;20468;-87
2022/01/28 10:09:24;;;;;;;6.20;3.37;;;9.00;96.50;;;;;;5064488;28;20452;-87
2022/01/28 10:11:54;;;;;;;8.87;4.10;;;8.90;96.70;;;;;;5060224;28;20445;-86
2022/01/28 10:14:23;;;;;;;6.23;2.80;;;8.70;97.00;;;;;;5067776;28;20452;-86
2022/01/28 10:16:57;;;;;;;8.80;3.10;;;8.50;96.60;;;;;;5060587;28;20460;-87
2022/01/28 10:19:25;;;;;;;7.27;3.90;;;8.50;96.90;;;;;;5066286;28;20575;-87
2022/01/28 10:21:54;;;;;;;9.17;2.90;;;8.50;97.10;;;;;;5063141;28;20935;-88
2022/01/28 10:24:24;;;;;;;9.23;5.23;;;8.60;96.60;;;;;;5066254;28;20472;-87
2022/01/28 10:26:52;;;;;;;9.10;5.23;;;8.70;96.70;;;;;;5078949;28;20466;-86
2022/01/28 10:29:23;;;;;;;6.70;3.10;;;8.90;96.80;;;;;;5086619;28;20467;-86
2022/01/28 10:31:55;;;;;;;9.30;2.97;;;9.40;96.00;;;;;;5061807;28;20452;-86
2022/01/28 10:34:25;;;;;;;6.13;2.93;;;9.80;94.90;;;;;;5065703;28;20460;-87
2022/01/28 10:37:07;;;;;;;8.00;2.83;;;9.70;94.20;;;;;;5060218;28;20475;-87
2022/01/28 10:39:42;;;;;;;9.57;3.87;;;9.50;94.20;;;;;;5062934;28;20480;-87
2022/01/28 10:42:10;;;;;;;6.40;3.30;;;9.50;94.60;;;;;;5058578;28;20436;-86
2022/01/28 10:44:51;;;;;;;4.87;2.43;;;9.90;94.70;;;;;;5063164;28;20463;-86
2022/01/28 10:47:33;;;;;;;5.23;2.30;;;11.20;93.00;;;;;;5064723;28;20479;-86
2022/01/28 10:50:01;;;;;;;5.57;3.13;;;12.50;91.00;;;;;;5065246;28;20440;-87
2022/01/28 10:52:33;;;;;;;5.67;3.33;;;15.80;86.80;;;;;;5070487;28;20494;-87
2022/01/28 10:55:01;;;;;;;13.17;5.80;;;19.60;72.80;;;;;;5060387;28;20498;-87
2022/01/28 10:57:30;;;;;;;9.80;4.73;;;19.90;62.30;;;;;;5064050;28;20463;-86
2022/01/28 10:59:58;;;;;;;5.30;3.13;;;19.00;58.00;;;;;;5062441;28;20544;-88
2022/01/28 11:02:26;;;;;;;5.03;2.53;;;18.20;58.60;;;;;;5071289;28;20511;-87
2022/01/28 11:04:57;;;;;;;5.47;2.70;;;17.30;59.20;;;;;;5071774;28;20439;-89
2022/01/28 11:07:24;;;;;;;41.87;8.70;;;16.80;60.90;;;;;;5065773;28;20472;-90
2022/01/28 11:09:51;;;;;;;5.37;3.50;;;17.30;59.70;;;;;;5069467;28;20509;-88
2022/01/28 11:12:19;;;;;;;7.83;2.93;;;16.10;60.60;;;;;;5067195;28;20960;-88
2022/01/28 11:14:46;;;;;;;8.07;2.27;;;15.20;62.00;;;;;;5068039;28;20451;-88
2022/01/28 11:17:16;;;;;;;10.50;2.30;;;14.80;64.60;;;;;;5060051;28;20525;-86
2022/01/28 11:19:44;;;;;;;5.50;2.40;;;15.10;65.80;;;;;;5065329;28;20479;-87
2022/01/28 11:22:34;;;;;;;4.93;2.60;;;15.10;63.50;;;;;;5060615;28;20943;-85
2022/01/28 11:25:21;;;;;;;8.50;3.10;;;13.90;64.90;;;;;;5062442;28;20829;-87
2022/01/28 11:27:49;;;;;;;9.77;2.57;;;12.70;68.20;;;;;;5080911;28;20836;-86
2022/01/28 11:30:19;;;;;;;7.70;2.67;;;12.60;71.30;;;;;;5070029;28;20889;-88
2022/01/28 11:33:01;;;;;;;3.50;2.30;;;15.00;70.00;;;;;;5056669;28;20830;-88
2022/01/28 11:35:34;;;;;;;4.57;2.43;;;16.80;62.10;;;;;;5062149;28;20489;-88
2022/01/28 11:38:04;;;;;;;6.67;3.60;;;16.80;61.40;;;;;;5070365;28;20462;-87
2022/01/28 11:40:45;;;;;;;5.77;3.60;;;15.80;61.10;;;;;;5086632;28;20479;-88
2022/01/28 11:43:20;;;;;;;6.20;3.10;;;14.60;62.40;;;;;;5080223;28;20460;-88
2022/01/28 11:45:48;;;;;;;5.03;3.03;;;13.90;64.90;;;;;;5073843;28;20445;-88
2022/01/28 11:48:15;;;;;;;7.13;5.33;;;13.70;66.50;;;;;;5090022;28;20450;-87
2022/01/28 11:50:51;;;;;;;6.00;3.37;;;13.20;68.20;;;;;;5074019;28;20449;-88
2022/01/28 11:53:22;;;;;;;5.23;3.10;;;12.50;68.90;;;;;;5066832;28;20452;-88
2022/01/28 11:56:02;;;;;;;8.77;3.73;;;12.20;70.70;;;;;;5067347;28;20449;-88
2022/01/28 11:58:53;;;;;;;4.70;3.27;;;11.80;71.50;;;;;;5072732;28;20482;-88
2022/01/28 12:01:23;;;;;;;6.73;3.27;;;11.30;73.70;;;;;;5064838;28;20951;-88
2022/01/28 12:03:50;;;;;;;9.00;2.50;;;10.80;75.00;;;;;;5063704;28;20508;-88
2022/01/28 12:06:18;;;;;;;5.70;2.10;;;10.30;76.90;;;;;;5059933;28;20439;-85
2022/01/28 12:08:45;;;;;;;5.80;2.97;;;9.80;78.10;;;;;;5059839;28;20471;-85
2022/01/28 12:11:13;;;;;;;7.70;2.73;;;9.90;79.90;;;;;;5058427;28;21008;-85
2022/01/28 12:14:01;;;;;;;7.37;3.10;;;10.90;75.50;;;;;;5057566;28;20448;-86
2022/01/28 12:16:32;;;;;;;2.50;2.30;;;12.90;72.70;;;;;;5065275;28;20442;-83
2022/01/28 12:19:01;;;;;;;8.10;3.30;;;14.90;68.00;;;;;;5068376;28;20473;-87
2022/01/28 12:21:29;;;;;;;5.63;3.47;;;16.50;63.80;;;;;;5082042;28;20445;-86
2022/01/28 12:24:33;;;;;;;6.93;3.60;;;18.20;59.70;;;;;;5085898;28;20535;-86
2022/01/28 12:27:02;;;;;;;5.13;3.43;;;19.60;56.50;;;;;;5074032;28;21026;-86
2022/01/28 12:29:30;;;;;;;7.27;4.23;;;20.20;53.50;;;;;;5072589;28;20442;-87
2022/01/28 12:31:58;;;;;;;7.70;4.83;;;19.20;54.10;;;;;;5064016;28;20854;-86
2022/01/28 12:34:26;;;;;;;11.23;4.13;;;19.50;54.40;;;;;;5072069;28;20817;-86
2022/01/28 12:36:56;;;;;;;4.33;3.93;;;20.60;53.00;;;;;;5067932;28;20497;-87
2022/01/28 12:39:33;;;;;;;6.33;3.80;;;21.00;51.70;;;;;;5072617;28;20587;-86
2022/01/28 12:42:04;;;;;;;9.53;4.80;;;19.70;51.80;;;;;;5072391;28;20521;-88
2022/01/28 12:44:33;;;;;;;9.53;5.07;;;17.40;53.90;;;;;;5068615;28;20442;-91
2022/01/28 12:47:03;;;;;;;4.10;3.70;;;16.70;56.80;;;;;;5078284;28;20463;-83
2022/01/28 12:49:32;;;;;;;10.20;4.80;;;17.80;57.30;;;;;;5079396;28;20440;-87
2022/01/28 12:52:00;;;;;;;8.37;3.87;;;17.60;55.30;;;;;;5076171;28;20486;-85
2022/01/28 12:54:32;;;;;;;7.87;5.03;;;16.70;56.50;;;;;;5058004;28;20470;-85
2022/01/28 12:57:00;;;;;;;5.43;4.20;;;15.40;58.10;;;;;;5064551;28;20471;-85
2022/01/28 12:59:27;;;;;;;8.23;4.80;;;14.30;61.20;;;;;;5074393;28;20476;-84
2022/01/28 13:01:55;;;;;;;10.13;5.30;;;13.20;64.10;;;;;;5063034;28;20508;-83
2022/01/28 13:04:25;;;;;;;6.40;5.30;;;13.20;67.40;;;;;;5059503;28;20528;-84
2022/01/28 13:08:24;;;;;;;10.43;5.03;;;12.90;67.10;;;;;;5060377;28;20473;-84
2022/01/28 13:09:49;;;;;;;8.60;5.50;;;12.20;69.60;;;;;;5065601;28;20432;-83
2022/01/28 13:12:23;;;;;;;11.57;5.63;;;11.30;72.00;;;;;;5062986;28;20527;-83
2022/01/28 13:14:50;;;;;;;7.03;5.63;;;11.00;75.40;;;;;;5069073;28;20454;-84
2022/01/28 13:17:20;;;;;;;8.90;5.57;;;11.30;75.90;;;;;;5080123;28;20459;-84
2022/01/28 13:19:54;;;;;;;7.50;4.43;;;11.30;74.80;;;;;;5070593;28;20514;-84
2022/01/28 13:22:25;;;;;;;7.27;5.47;;;11.10;74.80;;;;;;5063408;28;20536;-84
2022/01/28 13:24:52;;;;;;;9.10;5.27;;;10.90;75.70;;;;;;5071007;28;20478;-83
2022/01/28 13:27:20;;;;;;;10.17;5.10;;;10.60;76.50;;;;;;5073132;28;20477;-84
2022/01/28 13:29:51;;;;;;;12.60;5.83;;;10.40;77.70;;;;;;5067338;28;20438;-84
2022/01/28 13:32:23;;;;;;;8.87;6.40;;;10.30;78.70;;;;;;5064111;28;20455;-84
2022/01/28 13:34:52;;;;;;;11.53;7.50;;;10.30;79.10;;;;;;5067000;28;21157;-84
2022/01/28 13:37:38;;;;;;;7.47;5.80;;;10.10;80.20;;;;;;5061419;28;20551;-84
2022/01/28 13:40:07;;;;;;;9.03;6.40;;;10.30;79.70;;;;;;5069000;28;20570;-83
2022/01/28 13:42:34;;;;;;;6.57;5.53;;;10.90;79.10;;;;;;5078943;28;20436;-84
2022/01/28 13:45:05;;;;;;;12.07;7.00;;;11.40;76.90;;;;;;5067088;28;20508;-83
2022/01/28 13:47:51;;;;;;;8.90;6.47;;;12.00;76.20;;;;;;5078987;28;20472;-84
2022/01/28 13:50:26;;;;;;;11.20;7.60;;;12.30;73.90;;;;;;5065422;28;20802;-84
2022/01/28 13:53:19;;;;;;;8.47;6.27;;;11.80;73.30;;;;;;5067068;28;20468;-84